createdAt,value
2022-12-06T00:01:31.352Z,2.60
2022-12-06T00:04:01.364Z,2.60
2022-12-06T00:06:32.629Z,2.60
2022-12-06T00:09:02.480Z,2.50
2022-12-06T00:11:32.332Z,2.50
2022-12-06T00:14:02.734Z,2.60
2022-12-06T00:16:31.344Z,2.50
2022-12-06T00:18:59.968Z,2.50
2022-12-06T00:21:30.510Z,2.50
2022-12-06T00:24:02.474Z,2.50
2022-12-06T00:26:31.191Z,2.50
2022-12-06T00:29:01.274Z,2.40
2022-12-06T00:31:31.372Z,2.40
2022-12-06T00:33:59.946Z,2.40
2022-12-06T00:36:30.449Z,2.40
2022-12-06T00:39:03.125Z,2.40
2022-12-06T00:41:31.381Z,2.40
2022-12-06T00:43:59.633Z,2.40
2022-12-06T00:46:29.646Z,2.40
2022-12-06T00:48:59.423Z,2.40
2022-12-06T00:51:29.345Z,2.50
2022-12-06T00:53:58.923Z,2.50
2022-12-06T00:56:28.603Z,2.50
2022-12-06T00:58:57.007Z,2.50
2022-12-06T01:01:26.734Z,2.50
2022-12-06T01:03:56.933Z,2.50
2022-12-06T01:06:28.143Z,2.40
2022-12-06T01:08:57.165Z,2.40
2022-12-06T01:11:25.772Z,2.40
2022-12-06T01:13:56.076Z,2.40
2022-12-06T01:16:26.413Z,2.30
2022-12-06T01:18:57.555Z,2.30
2022-12-06T01:21:26.672Z,2.30
2022-12-06T01:23:55.383Z,2.30
2022-12-06T01:26:25.391Z,2.20
2022-12-06T01:28:55.628Z,2.30
2022-12-06T01:31:25.486Z,2.30
2022-12-06T01:33:53.659Z,2.30
2022-12-06T01:36:23.563Z,2.30
2022-12-06T01:38:52.231Z,2.30
2022-12-06T01:41:21.443Z,2.30
2022-12-06T01:43:49.865Z,2.30
2022-12-06T01:46:29.751Z,2.30
2022-12-06T01:49:06.612Z,2.20
2022-12-06T01:51:35.619Z,2.20
2022-12-06T01:54:06.475Z,2.20
2022-12-06T01:56:34.614Z,2.20
2022-12-06T01:59:03.576Z,2.20
2022-12-06T02:01:33.255Z,2.20
2022-12-06T02:04:02.367Z,2.20
2022-12-06T02:06:31.928Z,2.10
2022-12-06T02:09:02.164Z,2.10
2022-12-06T02:11:34.936Z,2.10
2022-12-06T02:14:05.840Z,2.10
2022-12-06T02:16:47.159Z,2.10
2022-12-06T02:19:35.248Z,2.10
2022-12-06T02:22:12.152Z,2.10
2022-12-06T02:25:08.420Z,2.20
2022-12-06T02:27:51.267Z,2.10
2022-12-06T02:30:37.419Z,2.10
2022-12-06T02:33:09.844Z,2.10
2022-12-06T02:35:42.085Z,2.10
2022-12-06T02:38:17.646Z,2.10
2022-12-06T02:40:50.248Z,2.00
2022-12-06T02:43:22.648Z,2.00
2022-12-06T02:45:56.087Z,2.00
2022-12-06T02:48:26.316Z,2.00
2022-12-06T02:51:00.147Z,2.00
2022-12-06T02:53:30.415Z,2.10
2022-12-06T02:55:59.757Z,2.10
2022-12-06T02:58:28.035Z,2.20
2022-12-06T03:01:00.489Z,2.10
2022-12-06T03:03:52.459Z,2.10
2022-12-06T03:06:50.337Z,2.10
2022-12-06T03:09:28.766Z,2.10
2022-12-06T03:12:02.505Z,2.10
2022-12-06T03:14:39.337Z,2.10
2022-12-06T03:17:17.012Z,2.10
2022-12-06T03:19:50.080Z,2.10
2022-12-06T03:22:32.535Z,2.10
2022-12-06T03:25:05.835Z,2.10
2022-12-06T03:27:36.630Z,2.10
2022-12-06T03:30:08.547Z,2.10
2022-12-06T03:32:39.494Z,2.10
2022-12-06T03:35:11.557Z,2.10
2022-12-06T03:37:44.736Z,2.10
2022-12-06T03:40:20.941Z,2.10
2022-12-06T03:42:50.516Z,2.10
2022-12-06T03:45:19.077Z,2.20
2022-12-06T03:47:54.711Z,2.10
2022-12-06T03:50:28.035Z,2.10
2022-12-06T03:52:56.124Z,2.10
2022-12-06T03:55:24.421Z,2.10
2022-12-06T03:57:52.464Z,2.00
2022-12-06T04:00:20.904Z,2.00
2022-12-06T04:02:50.326Z,2.00
2022-12-06T04:05:18.705Z,2.00
2022-12-06T04:07:46.848Z,2.00
2022-12-06T04:10:14.889Z,2.00
2022-12-06T04:13:00.351Z,2.00
2022-12-06T04:15:30.083Z,2.00
2022-12-06T04:18:14.181Z,2.00
2022-12-06T04:21:01.745Z,2.00
2022-12-06T04:23:30.863Z,2.00
2022-12-06T04:25:58.948Z,2.00
2022-12-06T04:28:45.277Z,1.90
2022-12-06T04:31:31.147Z,1.90
2022-12-06T04:34:18.197Z,2.00
2022-12-06T04:37:03.931Z,2.00
2022-12-06T04:39:32.062Z,2.00
2022-12-06T04:42:17.524Z,1.90
2022-12-06T04:44:45.648Z,1.90
2022-12-06T04:47:13.755Z,1.90
2022-12-06T04:49:43.278Z,1.90
2022-12-06T04:52:11.965Z,1.90
2022-12-06T04:54:40.582Z,2.00
2022-12-06T04:57:11.091Z,1.90
2022-12-06T04:59:40.166Z,1.90
2022-12-06T05:02:10.157Z,1.90
2022-12-06T05:04:38.262Z,1.90
2022-12-06T05:07:07.739Z,1.90
2022-12-06T05:09:35.777Z,1.90
2022-12-06T05:12:03.947Z,1.90
2022-12-06T05:14:32.186Z,1.90
2022-12-06T05:17:00.287Z,2.00
2022-12-06T05:19:28.586Z,1.90
2022-12-06T05:21:56.673Z,1.90
2022-12-06T05:24:26.092Z,1.90
2022-12-06T05:26:54.148Z,1.90
2022-12-06T05:29:22.271Z,1.90
2022-12-06T05:31:50.437Z,1.90
2022-12-06T05:34:18.547Z,1.90
2022-12-06T05:36:46.665Z,1.90
2022-12-06T05:39:15.390Z,1.90
2022-12-06T05:41:45.804Z,1.90
2022-12-06T05:44:14.767Z,2.10
2022-12-06T05:46:43.608Z,2.00
2022-12-06T05:49:12.169Z,2.10
2022-12-06T05:51:40.543Z,2.10
2022-12-06T05:54:08.588Z,2.10
2022-12-06T05:56:36.649Z,2.00
2022-12-06T05:59:06.077Z,2.00
2022-12-06T06:01:34.179Z,2.00
2022-12-06T06:04:02.691Z,2.00
2022-12-06T06:06:30.810Z,2.00
2022-12-06T06:08:58.902Z,1.90
2022-12-06T06:11:26.967Z,1.90
2022-12-06T06:13:55.077Z,2.00
2022-12-06T06:16:24.535Z,2.00
2022-12-06T06:18:52.765Z,2.00
2022-12-06T06:21:20.861Z,2.00
2022-12-06T06:23:48.992Z,2.00
2022-12-06T06:26:17.051Z,2.00
2022-12-06T06:28:45.188Z,2.00
2022-12-06T06:31:13.287Z,2.00
2022-12-06T06:33:42.785Z,2.00
2022-12-06T06:36:11.350Z,2.00
2022-12-06T06:38:39.481Z,1.90
2022-12-06T06:41:08.870Z,1.90
2022-12-06T06:43:36.980Z,1.90
2022-12-06T06:46:07.442Z,1.90
2022-12-06T06:48:38.188Z,1.90
2022-12-06T06:51:10.173Z,2.00
2022-12-06T06:53:38.987Z,1.90
2022-12-06T06:56:08.018Z,2.00
2022-12-06T06:58:36.085Z,2.00
2022-12-06T07:01:05.861Z,2.00
2022-12-06T07:03:34.195Z,2.00
2022-12-06T07:06:04.038Z,2.00
2022-12-06T07:08:33.789Z,2.00
2022-12-06T07:11:01.834Z,2.00
2022-12-06T07:13:31.453Z,2.00
2022-12-06T07:16:00.094Z,2.00
2022-12-06T07:18:28.895Z,2.00
2022-12-06T07:21:01.340Z,2.00
2022-12-06T07:23:29.609Z,2.00
2022-12-06T07:26:07.297Z,2.00
2022-12-06T07:28:37.679Z,2.10
2022-12-06T07:31:14.414Z,2.10
2022-12-06T07:33:43.767Z,2.10
2022-12-06T07:36:13.853Z,2.10
2022-12-06T07:38:43.301Z,2.10
2022-12-06T07:41:31.769Z,2.10
2022-12-06T07:44:18.537Z,2.10
2022-12-06T07:46:47.027Z,2.10
2022-12-06T07:49:16.913Z,2.10
2022-12-06T07:51:45.387Z,2.10
2022-12-06T07:54:13.849Z,2.00
2022-12-06T07:56:43.682Z,2.10
2022-12-06T07:59:12.191Z,2.10
2022-12-06T08:01:40.597Z,2.10
2022-12-06T08:04:08.869Z,2.10
2022-12-06T08:06:37.444Z,2.10
2022-12-06T08:09:06.101Z,2.10
2022-12-06T08:11:34.717Z,2.10
2022-12-06T08:14:04.199Z,2.20
2022-12-06T08:16:32.650Z,2.20
2022-12-06T08:19:00.811Z,2.20
2022-12-06T08:21:28.890Z,2.30
2022-12-06T08:23:57.035Z,2.30
2022-12-06T08:26:25.189Z,2.30
2022-12-06T08:28:53.288Z,2.40
2022-12-06T08:31:24.981Z,2.40
2022-12-06T08:33:53.560Z,2.50
2022-12-06T08:36:23.771Z,2.50
2022-12-06T08:38:53.118Z,2.50
2022-12-06T08:41:40.365Z,2.50
2022-12-06T08:44:10.977Z,2.50
2022-12-06T08:46:40.803Z,2.50
2022-12-06T08:49:08.963Z,2.70
2022-12-06T08:51:37.658Z,2.70
2022-12-06T08:54:06.309Z,2.60
2022-12-06T08:56:34.495Z,2.80
2022-12-06T08:59:02.625Z,2.90
2022-12-06T09:01:37.832Z,2.80
2022-12-06T09:04:09.565Z,2.80
2022-12-06T09:06:39.425Z,2.80
2022-12-06T09:09:07.949Z,2.80
2022-12-06T09:11:36.096Z,2.80
2022-12-06T09:14:04.584Z,2.70
2022-12-06T09:16:32.860Z,2.70
2022-12-06T09:19:01.006Z,2.70
2022-12-06T09:21:31.991Z,2.70
2022-12-06T09:24:00.410Z,2.80
2022-12-06T09:26:29.837Z,2.70
2022-12-06T09:28:59.088Z,2.70
2022-12-06T09:31:27.455Z,2.80
2022-12-06T09:33:55.899Z,2.80
2022-12-06T09:36:25.964Z,2.90
2022-12-06T09:39:00.605Z,3.00
2022-12-06T09:41:57.378Z,3.00
2022-12-06T09:44:49.449Z,3.00
2022-12-06T09:47:29.551Z,3.10
2022-12-06T09:50:09.774Z,3.20
2022-12-06T09:52:55.516Z,3.30
2022-12-06T09:55:36.585Z,3.40
2022-12-06T09:58:13.438Z,3.40
2022-12-06T10:00:48.751Z,3.40
2022-12-06T10:03:36.941Z,3.40
2022-12-06T10:06:09.982Z,3.40
2022-12-06T10:08:57.881Z,3.40
2022-12-06T10:11:44.441Z,3.50
2022-12-06T10:14:26.989Z,3.50
2022-12-06T10:17:03.380Z,3.40
2022-12-06T10:19:45.381Z,3.40
2022-12-06T10:22:21.270Z,3.60
2022-12-06T10:24:59.128Z,3.50
2022-12-06T10:27:37.698Z,3.50
2022-12-06T10:30:10.667Z,3.60
2022-12-06T10:32:52.286Z,3.60
2022-12-06T10:35:30.397Z,3.60
2022-12-06T10:38:10.477Z,3.60
2022-12-06T10:40:47.273Z,3.70
2022-12-06T10:43:21.903Z,3.60
2022-12-06T10:46:10.378Z,3.70
2022-12-06T10:48:44.531Z,3.70
2022-12-06T10:51:16.674Z,3.70
2022-12-06T10:53:50.786Z,3.60
2022-12-06T10:56:22.431Z,3.60
2022-12-06T10:58:58.099Z,3.70
2022-12-06T11:01:29.385Z,3.60
2022-12-06T11:04:01.080Z,3.70
2022-12-06T11:06:33.995Z,3.70
2022-12-06T11:09:09.535Z,3.80
2022-12-06T11:11:40.167Z,3.90
2022-12-06T11:14:17.224Z,3.90
2022-12-06T11:16:56.639Z,3.90
2022-12-06T11:19:33.246Z,4.00
2022-12-06T11:22:09.781Z,4.00
2022-12-06T11:24:47.790Z,3.90
2022-12-06T11:27:22.830Z,4.00
2022-12-06T11:29:53.315Z,4.00
2022-12-06T11:32:21.454Z,4.00
2022-12-06T11:34:52.814Z,4.10
2022-12-06T11:37:22.836Z,4.10
2022-12-06T11:39:53.808Z,4.10
2022-12-06T11:42:26.200Z,4.20
2022-12-06T11:44:59.162Z,4.20
2022-12-06T11:47:27.709Z,4.30
2022-12-06T11:49:59.507Z,4.20
2022-12-06T11:52:36.661Z,4.10
2022-12-06T11:55:08.511Z,4.20
2022-12-06T11:57:41.898Z,4.30
2022-12-06T12:00:16.571Z,4.20
2022-12-06T12:02:46.994Z,4.10
2022-12-06T12:05:21.453Z,4.20
2022-12-06T12:07:59.528Z,4.20
2022-12-06T12:10:36.701Z,4.20
2022-12-06T12:13:38.059Z,4.20
2022-12-06T12:16:16.435Z,4.20
2022-12-06T12:18:56.195Z,4.20
2022-12-06T12:21:34.625Z,4.20
2022-12-06T12:24:03.211Z,4.40
2022-12-06T12:26:41.299Z,4.30
2022-12-06T12:29:18.281Z,4.30
2022-12-06T12:31:59.724Z,4.40
2022-12-06T12:34:29.792Z,4.40
2022-12-06T12:37:00.474Z,4.40
2022-12-06T12:39:34.579Z,4.40
2022-12-06T12:42:03.619Z,4.40
2022-12-06T12:44:38.734Z,4.50
2022-12-06T12:47:19.753Z,4.40
2022-12-06T12:50:03.236Z,4.40
2022-12-06T12:52:36.941Z,4.20
2022-12-06T12:55:18.089Z,4.20
2022-12-06T12:57:48.692Z,4.30
2022-12-06T13:00:18.392Z,4.30
2022-12-06T13:02:52.459Z,4.30
2022-12-06T13:05:45.105Z,4.30
2022-12-06T13:08:16.221Z,4.20
2022-12-06T13:10:47.342Z,4.20
2022-12-06T13:13:19.688Z,4.20
2022-12-06T13:15:49.545Z,4.20
2022-12-06T13:18:23.569Z,4.20
2022-12-06T13:20:55.444Z,4.30
2022-12-06T13:23:26.347Z,4.20
2022-12-06T13:26:02.250Z,4.30
2022-12-06T13:28:36.497Z,4.20
2022-12-06T13:31:08.801Z,4.10
2022-12-06T13:33:46.296Z,4.10
2022-12-06T13:36:16.904Z,4.00
2022-12-06T13:38:45.136Z,4.10
2022-12-06T13:41:15.146Z,4.00
2022-12-06T13:43:52.109Z,4.00
2022-12-06T13:46:31.436Z,3.90
2022-12-06T13:49:03.228Z,3.90
2022-12-06T13:51:48.944Z,3.90
2022-12-06T13:54:37.884Z,3.70
2022-12-06T13:57:22.318Z,3.80
2022-12-06T13:59:50.564Z,3.70
2022-12-06T14:02:52.181Z,3.70
2022-12-06T14:06:09.058Z,3.60
2022-12-06T14:08:42.245Z,3.60
2022-12-06T14:11:25.196Z,3.70
2022-12-06T14:14:02.962Z,3.70
2022-12-06T14:16:36.198Z,3.60
2022-12-06T14:19:14.320Z,3.50
2022-12-06T14:21:51.601Z,3.40
2022-12-06T14:24:32.603Z,3.40
2022-12-06T14:27:05.803Z,3.40
2022-12-06T14:29:33.888Z,3.50
2022-12-06T14:32:01.960Z,3.50
2022-12-06T14:34:32.754Z,3.40
2022-12-06T14:37:04.436Z,3.40
2022-12-06T14:39:33.709Z,3.40
2022-12-06T14:42:20.847Z,3.40
2022-12-06T14:44:50.570Z,3.40
2022-12-06T14:47:21.161Z,3.40
2022-12-06T14:50:10.769Z,3.30
2022-12-06T14:52:57.630Z,3.30
2022-12-06T14:55:27.149Z,3.30
2022-12-06T14:57:58.608Z,3.30
2022-12-06T15:00:32.159Z,3.30
2022-12-06T15:03:03.882Z,3.30
2022-12-06T15:05:37.572Z,3.40
2022-12-06T15:08:34.219Z,3.40
2022-12-06T15:11:04.928Z,3.30
2022-12-06T15:13:32.886Z,3.40
2022-12-06T15:16:12.302Z,3.30
2022-12-06T15:18:42.412Z,3.30
2022-12-06T15:21:13.520Z,3.30
2022-12-06T15:23:49.744Z,3.30
2022-12-06T15:26:20.026Z,3.30
2022-12-06T15:28:48.864Z,3.30
2022-12-06T15:31:19.982Z,3.40
2022-12-06T15:33:48.804Z,3.40
2022-12-06T15:36:19.356Z,3.40
2022-12-06T15:38:49.214Z,3.40
2022-12-06T15:41:19.970Z,3.30
2022-12-06T15:43:48.895Z,3.30
2022-12-06T15:46:19.621Z,3.30
2022-12-06T15:48:47.871Z,3.20
2022-12-06T15:51:20.590Z,3.30
2022-12-06T15:53:51.738Z,3.20
2022-12-06T15:56:21.631Z,3.20
2022-12-06T15:58:50.486Z,3.20
2022-12-06T16:01:20.619Z,3.20
2022-12-06T16:03:49.156Z,3.20
2022-12-06T16:06:18.902Z,3.20
2022-12-06T16:08:47.177Z,3.20
2022-12-06T16:11:19.368Z,3.20
2022-12-06T16:13:47.701Z,3.20
2022-12-06T16:16:16.651Z,3.20
2022-12-06T16:18:44.909Z,3.20
2022-12-06T16:21:20.233Z,3.10
2022-12-06T16:24:13.068Z,3.10
2022-12-06T16:26:45.530Z,3.10
2022-12-06T16:29:15.556Z,3.20
2022-12-06T16:31:44.152Z,3.10
2022-12-06T16:34:12.260Z,3.10
2022-12-06T16:36:58.549Z,3.10
2022-12-06T16:39:26.916Z,3.10
2022-12-06T16:41:56.405Z,3.10
2022-12-06T16:44:24.703Z,3.00
2022-12-06T16:46:53.009Z,3.00
2022-12-06T16:52:11.456Z,3.10
2022-12-06T16:54:41.485Z,3.00
2022-12-06T16:57:12.658Z,3.00
2022-12-06T16:59:42.471Z,3.00
2022-12-06T17:02:26.464Z,3.00
2022-12-06T17:04:55.447Z,3.00
2022-12-06T17:07:23.582Z,2.90
2022-12-06T17:09:51.641Z,3.00
2022-12-06T17:12:21.428Z,2.90
2022-12-06T17:14:49.635Z,2.90
2022-12-06T17:17:20.249Z,3.00
2022-12-06T17:19:49.142Z,3.00
2022-12-06T17:22:18.737Z,3.00
2022-12-06T17:24:46.926Z,3.00
2022-12-06T17:27:15.951Z,3.00
2022-12-06T17:29:45.698Z,3.00
2022-12-06T17:32:14.524Z,3.00
2022-12-06T17:34:42.689Z,2.90
2022-12-06T17:37:10.990Z,3.10
2022-12-06T17:39:39.295Z,3.20
2022-12-06T17:42:25.248Z,3.30
2022-12-06T17:44:54.856Z,3.10
2022-12-06T17:47:23.199Z,3.10
2022-12-06T17:49:51.652Z,3.10
2022-12-06T17:52:20.300Z,3.10
2022-12-06T17:54:48.475Z,3.00
2022-12-06T17:57:18.609Z,3.10
2022-12-06T17:59:48.292Z,3.10
2022-12-06T18:02:20.200Z,3.10
2022-12-06T18:04:49.145Z,3.10
2022-12-06T18:07:18.334Z,3.10
2022-12-06T18:09:46.678Z,3.10
2022-12-06T18:12:16.200Z,3.10
2022-12-06T18:14:44.617Z,3.10
2022-12-06T18:17:13.140Z,3.10
2022-12-06T18:19:46.821Z,3.10
2022-12-06T18:22:16.269Z,3.10
2022-12-06T18:24:44.857Z,3.10
2022-12-06T18:27:15.602Z,3.00
2022-12-06T18:29:43.788Z,3.00
2022-12-06T18:32:12.190Z,3.00
2022-12-06T18:34:40.370Z,2.90
2022-12-06T18:37:09.814Z,2.90
2022-12-06T18:39:37.908Z,3.00
2022-12-06T18:42:06.225Z,3.00
2022-12-06T18:44:34.319Z,3.00
2022-12-06T18:47:02.374Z,3.00
2022-12-06T18:49:30.467Z,3.00
2022-12-06T18:51:58.571Z,2.90
2022-12-06T18:54:28.383Z,2.90
2022-12-06T18:56:58.348Z,2.90
2022-12-06T18:59:27.888Z,2.80
2022-12-06T19:01:56.760Z,2.80
2022-12-06T19:04:25.051Z,2.70
2022-12-06T19:06:53.106Z,2.70
2022-12-06T19:09:22.537Z,2.70
2022-12-06T19:11:52.018Z,2.70
2022-12-06T19:14:20.375Z,2.80
2022-12-06T19:16:50.123Z,2.80
2022-12-06T19:19:20.856Z,2.70
2022-12-06T19:21:50.104Z,2.70
2022-12-06T19:24:20.214Z,2.60
2022-12-06T19:26:48.860Z,2.60
2022-12-06T19:29:18.417Z,2.60
2022-12-06T19:31:46.783Z,2.60
2022-12-06T19:34:16.830Z,2.60
2022-12-06T19:36:45.194Z,2.60
2022-12-06T19:39:14.573Z,2.80
2022-12-06T19:42:00.953Z,2.70
2022-12-06T19:44:31.188Z,2.60
2022-12-06T19:46:59.743Z,2.60
2022-12-06T19:49:29.265Z,2.60
2022-12-06T19:51:57.378Z,2.60
2022-12-06T19:54:27.974Z,2.60
2022-12-06T19:56:58.179Z,2.60
2022-12-06T19:59:29.518Z,2.60
2022-12-06T20:01:59.340Z,2.60
2022-12-06T20:04:29.719Z,2.60
2022-12-06T20:06:58.185Z,2.70
2022-12-06T20:09:28.434Z,2.70
2022-12-06T20:12:04.653Z,2.70
2022-12-06T20:14:38.221Z,2.70
2022-12-06T20:17:09.978Z,2.70
2022-12-06T20:19:38.722Z,2.80
2022-12-06T20:22:07.057Z,2.80
2022-12-06T20:24:35.108Z,2.80
2022-12-06T20:27:03.249Z,2.90
2022-12-06T20:29:32.752Z,2.80
2022-12-06T20:32:01.730Z,2.80
2022-12-06T20:34:34.217Z,2.80
2022-12-06T20:37:04.507Z,2.70
2022-12-06T20:39:35.513Z,2.70
2022-12-06T20:42:05.797Z,2.60
2022-12-06T20:44:34.377Z,2.70
2022-12-06T20:47:03.044Z,2.60
2022-12-06T20:49:32.748Z,2.50
2022-12-06T20:52:02.873Z,2.50
2022-12-06T20:54:31.256Z,2.40
2022-12-06T20:56:59.543Z,2.40
2022-12-06T20:59:29.304Z,2.30
2022-12-06T21:01:57.764Z,2.30
2022-12-06T21:04:26.837Z,2.20
2022-12-06T21:06:57.044Z,2.20
2022-12-06T21:09:25.200Z,2.20
2022-12-06T21:11:53.354Z,2.20
2022-12-06T21:14:22.169Z,2.30
2022-12-06T21:16:50.324Z,2.20
2022-12-06T21:19:20.578Z,2.20
2022-12-06T21:21:51.378Z,2.30
2022-12-06T21:24:22.617Z,2.30
2022-12-06T21:26:50.764Z,2.20
2022-12-06T21:29:21.666Z,2.10
2022-12-06T21:31:52.566Z,2.10
2022-12-06T21:34:20.693Z,2.20
2022-12-06T21:36:48.825Z,2.20
2022-12-06T21:39:17.120Z,2.10
2022-12-06T21:41:46.604Z,2.10
2022-12-06T21:44:14.684Z,2.10
2022-12-06T21:46:42.798Z,2.10
2022-12-06T21:49:11.882Z,2.00
2022-12-06T21:51:39.995Z,2.10
2022-12-06T21:54:08.299Z,2.10
2022-12-06T21:56:36.467Z,2.10
2022-12-06T21:59:05.851Z,2.00
2022-12-06T22:01:34.297Z,1.90
2022-12-06T22:04:04.591Z,1.80
2022-12-06T22:06:33.854Z,1.80
2022-12-06T22:09:04.042Z,1.80
2022-12-06T22:11:32.805Z,1.70
2022-12-06T22:14:01.624Z,1.70
2022-12-06T22:16:32.661Z,1.70
2022-12-06T22:19:01.287Z,1.70
2022-12-06T22:21:32.687Z,1.70
2022-12-06T22:24:01.346Z,1.70
2022-12-06T22:26:32.270Z,1.60
2022-12-06T22:29:01.492Z,1.60
2022-12-06T22:31:33.306Z,1.50
2022-12-06T22:34:04.730Z,1.60
2022-12-06T22:36:34.336Z,1.60
2022-12-06T22:39:03.711Z,1.60
2022-12-06T22:41:32.148Z,1.60
2022-12-06T22:44:02.474Z,1.70
2022-12-06T22:46:36.612Z,1.70
2022-12-06T22:49:05.851Z,1.70
2022-12-06T22:51:35.326Z,1.70
2022-12-06T22:54:06.345Z,1.80
2022-12-06T22:56:35.027Z,1.70
2022-12-06T22:59:03.893Z,1.70
2022-12-06T23:01:35.044Z,1.70
2022-12-06T23:04:05.668Z,1.60
2022-12-06T23:06:34.821Z,1.60
2022-12-06T23:09:03.019Z,1.50
2022-12-06T23:11:33.003Z,1.50
2022-12-06T23:14:02.919Z,1.50
2022-12-06T23:16:36.303Z,1.60
2022-12-06T23:19:05.701Z,1.60
2022-12-06T23:21:35.487Z,1.60
2022-12-06T23:24:05.578Z,1.70
2022-12-06T23:26:35.982Z,1.90
2022-12-06T23:29:23.675Z,1.90
2022-12-06T23:31:53.263Z,2.00
2022-12-06T23:34:23.254Z,2.10
2022-12-06T23:36:51.341Z,2.10
2022-12-06T23:39:19.543Z,2.20
2022-12-06T23:41:47.650Z,2.20
2022-12-06T23:44:16.068Z,2.20
2022-12-06T23:46:45.948Z,2.20
2022-12-06T23:49:20.944Z,2.30
2022-12-06T23:51:51.039Z,2.40
2022-12-06T23:54:19.436Z,2.40
2022-12-06T23:56:48.161Z,2.40
2022-12-06T23:59:17.929Z,2.40
